createdAt,value
2022-09-05T00:00:25.101Z,7.5
2022-09-05T00:05:25.108Z,7.8
2022-09-05T00:10:25.109Z,7.2
2022-09-05T00:15:25.119Z,7.1
2022-09-05T00:24:18.507Z,9
2022-09-05T00:25:31.487Z,9.5
2022-09-05T00:31:03.987Z,7.6
2022-09-05T00:35:26.082Z,8.6
2022-09-05T00:40:25.146Z,9
2022-09-05T00:45:25.108Z,8.6
2022-09-05T00:50:25.107Z,6.9
2022-09-05T00:55:25.104Z,8.2
2022-09-05T01:00:25.099Z,8.9
2022-09-05T01:05:25.122Z,9.1
2022-09-05T01:10:25.108Z,8.6
2022-09-05T01:15:25.102Z,8.7
2022-09-05T01:20:25.107Z,8.9
2022-09-05T01:25:25.107Z,8.7
2022-09-05T01:30:25.123Z,8.7
2022-09-05T01:35:25.111Z,7.6
2022-09-05T01:40:25.163Z,4.3
2022-09-05T01:45:25.562Z,4.6
2022-09-05T01:50:25.099Z,5.7
2022-09-05T01:55:25.110Z,7.1
2022-09-05T02:00:25.098Z,5.7
2022-09-05T02:05:48.078Z,7.2
2022-09-05T02:10:25.115Z,7.2
2022-09-05T02:15:25.152Z,6.2
2022-09-05T02:20:25.103Z,9.2
2022-09-05T02:26:00.910Z,6.2
2022-09-05T02:30:25.108Z,7.4
2022-09-05T02:35:25.121Z,6.1
2022-09-05T02:45:04.480Z,6.9
2022-09-05T02:45:27.109Z,8.2
2022-09-05T02:51:48.813Z,7.9
2022-09-05T02:57:32.360Z,8.3
2022-09-05T03:00:25.121Z,8.3
2022-09-05T03:05:25.117Z,8.1
2022-09-05T03:10:26.861Z,5.4
2022-09-05T03:15:25.113Z,5.9
2022-09-05T03:20:25.102Z,8.6
2022-09-05T03:25:25.105Z,7.5
2022-09-05T03:30:25.129Z,8.9
2022-09-05T03:35:25.113Z,9
2022-09-05T03:40:25.104Z,8.4
2022-09-05T03:45:36.866Z,9.2
2022-09-05T03:53:09.185Z,9.2
2022-09-05T03:57:09.864Z,6.7
2022-09-05T04:00:25.110Z,5.7
2022-09-05T04:08:11.650Z,6.9
2022-09-05T04:10:25.194Z,8.3
2022-09-05T04:15:25.111Z,7.6
2022-09-05T04:20:25.117Z,7.6
2022-09-05T04:25:25.136Z,7.3
2022-09-05T04:30:39.184Z,8.5
2022-09-05T04:35:25.121Z,10.1
2022-09-05T04:40:26.997Z,9.9
2022-09-05T04:45:25.108Z,8.3
2022-09-05T04:50:25.101Z,9.1
2022-09-05T04:55:25.109Z,7.7
2022-09-05T05:01:46.116Z,8.4
2022-09-05T05:06:07.022Z,7.6
2022-09-05T05:10:45.293Z,7.2
2022-09-05T05:18:05.878Z,7.2
2022-09-05T05:20:41.012Z,6.8
2022-09-05T05:25:25.106Z,6.6
2022-09-05T05:30:25.112Z,6.9
2022-09-05T05:35:25.111Z,7.3
2022-09-05T05:40:25.103Z,7.8
2022-09-05T05:45:25.098Z,7.8
2022-09-05T05:50:25.119Z,8.3
2022-09-05T05:55:51.008Z,8.6
2022-09-05T06:00:27.798Z,9.2
2022-09-05T06:05:25.100Z,9.3
2022-09-05T06:12:34.432Z,9.5
2022-09-05T06:15:25.735Z,10.4
2022-09-05T06:21:19.772Z,10
2022-09-05T06:25:25.102Z,8.8
2022-09-05T06:30:25.101Z,9.4
2022-09-05T06:35:25.112Z,10.7
2022-09-05T06:40:27.179Z,12.2
2022-09-05T06:45:26.282Z,10.4
2022-09-05T06:50:27.662Z,11.3
2022-09-05T06:55:25.109Z,9.8
2022-09-05T07:00:25.206Z,10.9
2022-09-05T07:05:38.370Z,9.4
2022-09-05T07:10:40.390Z,12.8
2022-09-05T07:15:25.107Z,9.1
2022-09-05T07:20:25.095Z,10.9
2022-09-05T07:25:26.215Z,12.3
2022-09-05T07:30:25.101Z,10.7
2022-09-05T07:35:25.121Z,10.7
2022-09-05T07:40:26.783Z,11.6
2022-09-05T07:45:25.167Z,13.6
2022-09-05T07:51:10.077Z,9.1
2022-09-05T07:56:58.288Z,11
2022-09-05T08:00:26.336Z,10.1
2022-09-05T08:05:30.212Z,9
2022-09-05T08:10:30.969Z,8.7
2022-09-05T08:15:25.112Z,12.9
2022-09-05T08:20:25.111Z,10.9
2022-09-05T08:25:25.108Z,9.9
2022-09-05T08:30:27.805Z,12.3
2022-09-05T08:35:25.115Z,10.6
2022-09-05T08:40:25.155Z,11.4
2022-09-05T08:46:38.174Z,10.6
2022-09-05T08:50:26.848Z,10.2
2022-09-05T08:55:25.110Z,13.7
2022-09-05T09:00:25.367Z,9.9
2022-09-05T09:05:25.121Z,11.6
2022-09-05T09:10:26.073Z,10.6
2022-09-05T09:15:25.110Z,13.6
2022-09-05T09:20:25.102Z,11.4
2022-09-05T09:25:26.502Z,14.4
2022-09-05T09:30:25.104Z,15.6
2022-09-05T09:35:25.115Z,12.6
2022-09-05T09:40:25.187Z,14.4
2022-09-05T09:45:28.135Z,13.8
2022-09-05T09:50:25.104Z,13.8
2022-09-05T09:55:25.105Z,11.5
2022-09-05T10:00:25.105Z,15
2022-09-05T10:08:59.801Z,18.4
2022-09-05T10:10:56.719Z,18.1
2022-09-05T10:15:31.052Z,12.7
2022-09-05T10:20:29.256Z,15.8
2022-09-05T10:25:25.110Z,8.6
2022-09-05T10:30:25.253Z,18.6
2022-09-05T10:35:25.606Z,15.8
2022-09-05T10:40:25.095Z,15.8
2022-09-05T10:45:30.060Z,13.9
2022-09-05T10:50:25.096Z,13.9
2022-09-05T10:55:25.115Z,15.1
2022-09-05T11:02:19.565Z,21.8
2022-09-05T11:05:25.149Z,21.8
2022-09-05T11:10:25.103Z,19.8
2022-09-05T11:15:25.105Z,17.6
2022-09-05T11:20:27.635Z,18.2
2022-09-05T11:25:36.998Z,9.7
2022-09-05T11:30:29.745Z,9
2022-09-05T11:38:24.033Z,9
2022-09-05T11:40:36.471Z,10.4
2022-09-05T11:45:25.102Z,14.3
2022-09-05T11:50:25.102Z,11.9
2022-09-05T11:55:25.103Z,12.9
2022-09-05T12:00:31.046Z,10.2
2022-09-05T12:05:47.907Z,11.5
2022-09-05T12:10:46.062Z,11.9
2022-09-05T12:15:25.110Z,14.6
2022-09-05T12:20:25.104Z,17.9
2022-09-05T12:26:14.120Z,18.2
2022-09-05T12:30:25.192Z,19.3
2022-09-05T12:36:09.585Z,18.2
2022-09-05T12:40:57.308Z,15.2
2022-09-05T12:45:27.204Z,15.1
2022-09-05T12:50:25.103Z,14.6
2022-09-05T12:55:25.110Z,16.2
2022-09-05T13:03:00.119Z,15.7
2022-09-05T13:05:25.260Z,17.7
2022-09-05T13:10:44.604Z,15.6
2022-09-05T13:15:25.699Z,17.8
2022-09-05T13:20:25.114Z,16.4
2022-09-05T13:25:25.105Z,16
2022-09-05T13:30:57.766Z,16
2022-09-05T13:37:57.235Z,17.5
2022-09-05T13:40:25.290Z,16.7
2022-09-05T13:45:25.101Z,16.7
2022-09-05T13:50:25.110Z,15.5
2022-09-05T13:55:25.105Z,20.8
2022-09-05T14:00:26.841Z,11.5
2022-09-05T14:05:25.175Z,11.5
2022-09-05T14:10:25.107Z,13.6
2022-09-05T14:15:25.409Z,14.7
2022-09-05T14:20:25.102Z,13.1
2022-09-05T14:25:25.104Z,14.7
2022-09-05T14:30:49.027Z,13.4
2022-09-05T14:37:47.180Z,13.4
2022-09-05T14:40:29.384Z,11.4
2022-09-05T14:45:25.119Z,13.7
2022-09-05T14:50:25.098Z,14.6
2022-09-05T14:55:25.099Z,11.9
2022-09-05T15:02:46.569Z,14.5
2022-09-05T15:05:25.110Z,14.9
2022-09-05T15:11:26.383Z,15.3
2022-09-05T15:15:25.115Z,15.6
2022-09-05T15:20:25.097Z,13.6
2022-09-05T15:25:25.099Z,23.8
2022-09-05T15:30:25.653Z,14.6
2022-09-05T15:35:25.105Z,11.7
2022-09-05T15:40:25.122Z,13.2
2022-09-05T15:45:25.103Z,11.6
2022-09-05T15:50:25.103Z,11.1
2022-09-05T15:55:25.108Z,10.2
2022-09-05T16:00:25.108Z,12.8
2022-09-05T16:07:12.196Z,7.7
2022-09-05T16:10:32.773Z,10.1
2022-09-05T16:16:46.115Z,9.4
2022-09-05T16:23:23.073Z,11.9
2022-09-05T16:25:25.158Z,9.5
2022-09-05T16:30:25.121Z,10.8
2022-09-05T16:35:26.630Z,12.3
2022-09-05T16:40:25.099Z,12.3
2022-09-05T16:45:25.150Z,11.4
2022-09-05T16:50:25.096Z,10.9
2022-09-05T16:55:28.481Z,12
2022-09-05T17:00:25.101Z,12
2022-09-05T17:05:25.112Z,11.7
2022-09-05T17:10:25.102Z,10.7
2022-09-05T17:15:25.109Z,13.7
2022-09-05T17:20:25.106Z,10.5
2022-09-05T17:29:23.173Z,10
2022-09-05T17:35:25.106Z,0
2022-09-05T17:40:25.215Z,8.7
2022-09-05T17:45:25.159Z,9.4
2022-09-05T17:50:25.095Z,8.2
2022-09-05T17:55:25.099Z,8.6
2022-09-05T18:00:27.350Z,8.5
2022-09-05T18:05:25.123Z,8.1
2022-09-05T18:10:27.212Z,9.3
2022-09-05T18:15:25.098Z,9
2022-09-05T18:20:25.109Z,8.2
2022-09-05T18:25:28.627Z,8.6
2022-09-05T18:30:25.102Z,8.3
2022-09-05T18:35:26.519Z,8
2022-09-05T18:40:29.118Z,8.5
2022-09-05T18:45:28.202Z,10.3
2022-09-05T18:50:27.751Z,9.5
2022-09-05T18:55:46.430Z,10
2022-09-05T19:00:25.105Z,9.9
2022-09-05T19:05:28.365Z,9.5
2022-09-05T19:10:34.115Z,10.2
2022-09-05T19:15:25.109Z,9.4
2022-09-05T19:20:32.328Z,8.4
2022-09-05T19:25:25.099Z,8.8
2022-09-05T19:30:37.991Z,9
2022-09-05T19:37:00.749Z,8.5
2022-09-05T19:41:33.208Z,9.6
2022-09-05T19:47:32.809Z,10.5
2022-09-05T19:50:25.104Z,9.9
2022-09-05T19:55:25.102Z,9.5
2022-09-05T20:00:25.175Z,10.3
2022-09-05T20:05:25.105Z,9.6
2022-09-05T20:10:25.106Z,9.7
2022-09-05T20:15:25.106Z,10
2022-09-05T20:20:25.100Z,9.7
2022-09-05T20:25:34.922Z,10.6
2022-09-05T20:30:25.111Z,11
2022-09-05T20:36:01.218Z,9.3
2022-09-05T20:43:13.507Z,8.5
2022-09-05T20:45:25.099Z,9.7
2022-09-05T20:54:12.423Z,11.9
2022-09-05T20:55:38.143Z,8.2
2022-09-05T21:00:25.106Z,8.1
2022-09-05T21:05:25.108Z,8.1
2022-09-05T21:10:25.104Z,8.1
2022-09-05T21:15:31.860Z,9.5
2022-09-05T21:20:25.099Z,10.2
2022-09-05T21:25:25.104Z,9
2022-09-05T21:30:27.147Z,8.9
2022-09-05T21:35:34.029Z,9.7
2022-09-05T21:40:25.152Z,9.9
2022-09-05T21:47:45.337Z,9.1
2022-09-05T21:50:30.914Z,9.1
2022-09-05T21:59:05.460Z,8.5
2022-09-05T22:00:25.101Z,8.7
2022-09-05T22:05:25.118Z,9.8
2022-09-05T22:10:28.812Z,8.9
2022-09-05T22:15:26.988Z,8.8
2022-09-05T22:20:25.098Z,7.9
2022-09-05T22:25:27.279Z,7.9
2022-09-05T22:30:25.101Z,6
2022-09-05T22:35:28.135Z,7.9
2022-09-05T22:40:25.105Z,6.7
2022-09-05T22:45:25.127Z,8.3
2022-09-05T22:50:25.106Z,6.7
2022-09-05T22:55:25.105Z,7.8
2022-09-05T23:00:25.097Z,8
2022-09-05T23:05:25.101Z,6.7
2022-09-05T23:10:25.097Z,6
2022-09-05T23:15:25.115Z,6.1
2022-09-05T23:20:25.098Z,9.7
2022-09-05T23:25:25.113Z,10.1
2022-09-05T23:30:25.095Z,7.4
2022-09-05T23:35:25.114Z,9.2
2022-09-05T23:40:25.090Z,8.1
2022-09-05T23:45:25.101Z,7.5
2022-09-05T23:50:25.091Z,10.1
2022-09-05T23:55:25.109Z,8.5
